createdAt,value
2017-07-24T00:02:25.760Z,57.84
2017-07-24T00:04:59.244Z,58.54
2017-07-24T00:07:32.769Z,58.95
2017-07-24T00:10:06.517Z,59.65
2017-07-24T00:12:39.143Z,60.11
2017-07-24T00:15:12.933Z,60.24
2017-07-24T00:17:45.606Z,60.31
2017-07-24T00:20:20.099Z,60.58
2017-07-24T00:22:52.685Z,60.06
2017-07-24T00:25:25.622Z,60.53
2017-07-24T00:27:57.672Z,61.32
2017-07-24T00:30:31.052Z,61.24
2017-07-24T00:33:03.832Z,62.04
2017-07-24T00:35:36.035Z,63.19
2017-07-24T00:38:14.639Z,64.78
2017-07-24T00:40:47.187Z,66.43
2017-07-24T00:43:19.563Z,66.41
2017-07-24T00:45:53.298Z,67.05
2017-07-24T00:48:26.332Z,68.59
2017-07-24T00:50:59.812Z,68.89
2017-07-24T00:53:32.955Z,70.12
2017-07-24T00:56:08.107Z,70.51
2017-07-24T00:58:41.724Z,70.71
2017-07-24T01:01:14.140Z,70.85
2017-07-24T01:03:47.792Z,71.00
2017-07-24T01:06:20.747Z,71.40
2017-07-24T01:08:53.839Z,70.76
2017-07-24T01:11:27.344Z,71.48
2017-07-24T01:14:00.629Z,71.21
2017-07-24T01:16:33.579Z,71.40
2017-07-24T01:19:06.268Z,71.67
2017-07-24T01:21:39.101Z,71.47
2017-07-24T01:24:11.865Z,71.68
2017-07-24T01:26:44.398Z,72.58
2017-07-24T01:29:17.059Z,71.43
2017-07-24T01:31:50.601Z,71.49
2017-07-24T01:34:24.408Z,71.87
2017-07-24T01:36:57.360Z,71.57
2017-07-24T01:39:30.858Z,71.69
2017-07-24T01:42:06.092Z,72.08
2017-07-24T01:44:39.006Z,72.16
2017-07-24T01:47:12.963Z,72.35
2017-07-24T01:49:45.881Z,71.46
2017-07-24T01:52:21.183Z,71.95
2017-07-24T01:54:55.305Z,71.85
2017-07-24T01:57:28.585Z,71.16
2017-07-24T02:00:02.579Z,71.50
2017-07-24T02:02:35.597Z,69.73
2017-07-24T02:05:08.555Z,70.26
2017-07-24T02:07:41.339Z,70.41
2017-07-24T02:10:17.742Z,71.37
2017-07-24T02:12:50.999Z,70.91
2017-07-24T02:15:24.309Z,70.72
2017-07-24T02:17:57.360Z,70.42
2017-07-24T02:20:30.271Z,70.61
2017-07-24T02:23:03.725Z,70.12
2017-07-24T02:25:36.900Z,70.69
2017-07-24T02:28:11.182Z,70.57
2017-07-24T02:30:43.575Z,70.60
2017-07-24T02:33:16.424Z,70.42
2017-07-24T02:35:49.692Z,71.29
2017-07-24T02:38:23.275Z,72.00
2017-07-24T02:40:56.138Z,73.26
2017-07-24T02:43:29.204Z,73.45
2017-07-24T02:46:02.497Z,73.27
2017-07-24T02:48:36.014Z,73.89
2017-07-24T02:51:10.083Z,73.51
2017-07-24T02:53:43.298Z,73.71
2017-07-24T02:56:18.650Z,74.33
2017-07-24T02:58:50.635Z,74.14
2017-07-24T03:01:23.833Z,74.21
2017-07-24T03:03:57.070Z,73.51
2017-07-24T03:06:30.832Z,73.51
2017-07-24T03:09:04.090Z,73.35
2017-07-24T03:11:36.806Z,73.31
2017-07-24T03:14:13.780Z,73.46
2017-07-24T03:16:46.119Z,72.93
2017-07-24T03:19:19.391Z,72.84
2017-07-24T03:21:51.872Z,73.51
2017-07-24T03:24:25.095Z,73.75
2017-07-24T03:26:58.621Z,74.02
2017-07-24T03:29:31.969Z,74.44
2017-07-24T03:32:06.733Z,75.40
2017-07-24T03:34:40.479Z,75.33
2017-07-24T03:37:13.294Z,75.07
2017-07-24T03:39:47.128Z,75.22
2017-07-24T03:42:20.669Z,74.12
2017-07-24T03:44:53.196Z,74.24
2017-07-24T03:47:27.979Z,74.33
2017-07-24T03:50:01.555Z,73.08
2017-07-24T03:52:34.931Z,73.22
2017-07-24T03:55:08.065Z,72.70
2017-07-24T03:57:41.424Z,73.28
2017-07-24T04:00:15.052Z,73.17
2017-07-24T04:02:47.390Z,73.45
2017-07-24T04:05:20.876Z,74.02
2017-07-24T04:07:54.478Z,74.83
2017-07-24T04:10:27.246Z,75.01
2017-07-24T04:12:59.742Z,74.16
2017-07-24T04:15:36.910Z,73.92
2017-07-24T04:18:11.556Z,73.41
2017-07-24T04:20:45.231Z,73.24
2017-07-24T04:23:18.492Z,73.35
2017-07-24T04:25:51.993Z,73.56
2017-07-24T04:28:24.960Z,73.76
2017-07-24T04:30:57.749Z,73.59
2017-07-24T04:33:29.829Z,73.47
2017-07-24T04:36:04.217Z,74.05
2017-07-24T04:38:37.408Z,73.92
2017-07-24T04:41:10.216Z,74.29
2017-07-24T04:43:42.744Z,73.78
2017-07-24T04:46:17.597Z,73.27
2017-07-24T04:48:52.458Z,72.66
2017-07-24T04:51:25.323Z,71.69
2017-07-24T04:53:57.316Z,72.00
2017-07-24T04:56:30.102Z,72.31
2017-07-24T04:59:02.833Z,72.43
2017-07-24T05:01:35.694Z,72.88
2017-07-24T05:04:10.757Z,73.43
2017-07-24T05:06:43.686Z,74.12
2017-07-24T05:09:17.057Z,73.43
2017-07-24T05:11:50.022Z,72.63
2017-07-24T05:14:23.675Z,73.02
2017-07-24T05:16:57.086Z,73.70
2017-07-24T05:19:30.256Z,74.15
2017-07-24T05:22:05.510Z,74.50
2017-07-24T05:24:38.625Z,74.66
2017-07-24T05:27:11.612Z,74.01
2017-07-24T05:29:44.388Z,73.34
2017-07-24T05:32:17.453Z,73.93
2017-07-24T05:34:50.714Z,74.57
2017-07-24T05:37:22.580Z,74.22
2017-07-24T05:39:54.787Z,74.55
2017-07-24T05:42:28.201Z,74.66
2017-07-24T05:45:00.846Z,74.89
2017-07-24T05:47:34.217Z,75.19
2017-07-24T05:50:10.017Z,75.31
2017-07-24T05:52:43.173Z,75.53
2017-07-24T05:55:16.507Z,75.87
2017-07-24T05:57:48.943Z,75.90
2017-07-24T06:00:21.775Z,75.20
2017-07-24T06:02:53.894Z,75.21
2017-07-24T06:05:25.787Z,75.29
2017-07-24T06:07:58.260Z,75.14
2017-07-24T06:10:30.548Z,75.31
2017-07-24T06:13:02.477Z,74.91
2017-07-24T06:15:35.801Z,75.44
2017-07-24T06:18:09.217Z,75.47
2017-07-24T06:20:40.901Z,75.14
2017-07-24T06:23:12.287Z,74.95
2017-07-24T06:25:43.709Z,75.29
2017-07-24T06:28:15.209Z,74.83
2017-07-24T06:30:46.644Z,74.55
2017-07-24T06:33:18.053Z,73.91
2017-07-24T06:35:49.456Z,73.55
2017-07-24T06:38:21.611Z,73.85
2017-07-24T06:40:53.020Z,74.03
2017-07-24T06:43:24.377Z,74.75
2017-07-24T06:45:56.170Z,74.41
2017-07-24T06:48:27.546Z,74.83
2017-07-24T06:50:59.215Z,74.64
2017-07-24T06:53:30.636Z,74.70
2017-07-24T06:56:04.680Z,75.17
2017-07-24T06:58:36.706Z,74.48
2017-07-24T07:01:08.142Z,74.91
2017-07-24T07:03:39.776Z,75.04
2017-07-24T07:06:12.657Z,74.74
2017-07-24T07:08:44.444Z,74.52
2017-07-24T07:11:15.857Z,74.18
2017-07-24T07:13:47.818Z,74.41
2017-07-24T07:16:20.195Z,75.06
2017-07-24T07:18:51.638Z,75.06
2017-07-24T07:21:23.326Z,75.05
2017-07-24T07:23:54.864Z,74.68
2017-07-24T07:26:26.279Z,74.95
2017-07-24T07:28:59.028Z,75.54
2017-07-24T07:31:30.480Z,75.74
2017-07-24T07:34:05.722Z,76.54
2017-07-24T07:36:37.126Z,78.53
2017-07-24T07:39:09.331Z,79.38
2017-07-24T07:41:40.793Z,79.16
2017-07-24T07:44:17.401Z,80.29
2017-07-24T07:46:49.303Z,80.77
2017-07-24T07:49:20.952Z,80.61
2017-07-24T07:51:52.452Z,80.12
2017-07-24T07:54:25.159Z,79.08
2017-07-24T07:56:56.511Z,77.83
2017-07-24T07:59:28.281Z,77.89
2017-07-24T08:02:00.337Z,77.98
2017-07-24T08:04:31.766Z,77.09
2017-07-24T08:07:03.144Z,77.05
2017-07-24T08:09:34.699Z,75.70
2017-07-24T08:12:09.617Z,74.60
2017-07-24T08:14:41.147Z,73.32
2017-07-24T08:17:13.074Z,73.56
2017-07-24T08:19:44.666Z,72.02
2017-07-24T08:22:18.514Z,70.80
2017-07-24T08:24:50.967Z,69.92
2017-07-24T08:27:22.483Z,69.74
2017-07-24T08:29:54.189Z,68.66
2017-07-24T08:32:25.556Z,68.71
2017-07-24T08:34:57.711Z,66.79
2017-07-24T08:37:29.437Z,66.30
2017-07-24T08:42:34.493Z,64.14
2017-07-24T08:45:06.033Z,62.35
2017-07-24T08:47:37.383Z,61.79
2017-07-24T08:50:14.504Z,59.93
2017-07-24T08:52:47.085Z,59.41
2017-07-24T08:55:19.462Z,59.78
2017-07-24T08:57:50.867Z,59.52
2017-07-24T09:00:23.448Z,57.68
2017-07-24T09:02:54.836Z,57.09
2017-07-24T09:05:26.212Z,57.67
2017-07-24T09:07:58.205Z,58.38
2017-07-24T09:10:29.589Z,58.15
2017-07-24T09:13:00.998Z,57.56
2017-07-24T09:15:33.012Z,56.67
2017-07-24T09:18:05.699Z,56.27
2017-07-24T09:20:37.048Z,55.39
2017-07-24T09:23:08.551Z,55.63
2017-07-24T09:25:39.980Z,56.21
2017-07-24T09:28:12.998Z,56.52
2017-07-24T09:30:44.412Z,58.04
2017-07-24T09:33:16.241Z,57.75
2017-07-24T09:35:47.662Z,56.80
2017-07-24T09:38:20.848Z,56.85
2017-07-24T09:40:53.618Z,57.55
2017-07-24T09:43:25.970Z,58.19
2017-07-24T09:45:57.365Z,58.86
2017-07-24T09:48:29.199Z,58.23
2017-07-24T09:51:00.767Z,57.41
2017-07-24T09:53:32.213Z,57.02
2017-07-24T09:56:05.136Z,57.34
2017-07-24T09:58:36.568Z,56.63
2017-07-24T10:01:07.966Z,55.83
2017-07-24T10:03:40.013Z,54.51
2017-07-24T10:06:12.530Z,52.79
2017-07-24T10:08:44.086Z,54.19
2017-07-24T10:11:15.603Z,53.67
2017-07-24T10:13:47.047Z,53.23
2017-07-24T10:16:20.972Z,52.67
2017-07-24T10:18:52.406Z,50.57
2017-07-24T10:21:23.833Z,50.35
2017-07-24T10:23:55.398Z,49.23
2017-07-24T10:26:26.853Z,49.28
2017-07-24T10:28:58.310Z,49.11
2017-07-24T10:31:30.155Z,47.74
2017-07-24T10:34:01.588Z,45.67
2017-07-24T10:36:33.052Z,45.18
2017-07-24T10:39:04.617Z,45.72
2017-07-24T10:41:36.004Z,46.34
2017-07-24T10:44:08.198Z,46.56
2017-07-24T10:46:39.573Z,45.61
2017-07-24T10:49:12.500Z,44.80
2017-07-24T10:51:44.089Z,43.68
2017-07-24T10:54:17.375Z,43.58
2017-07-24T10:56:49.013Z,43.47
2017-07-24T10:59:20.485Z,41.83
2017-07-24T11:01:53.359Z,41.36
2017-07-24T11:04:24.878Z,41.29
2017-07-24T11:06:56.474Z,41.49
2017-07-24T11:09:29.910Z,41.56
2017-07-24T11:12:04.164Z,41.76
2017-07-24T11:14:36.511Z,41.33
2017-07-24T11:17:11.783Z,40.66
2017-07-24T11:19:44.059Z,39.83
2017-07-24T11:22:18.400Z,38.62
2017-07-24T11:24:52.930Z,37.50
2017-07-24T11:27:29.710Z,37.17
2017-07-24T11:32:57.255Z,39.32
2017-07-24T11:35:30.505Z,40.00
2017-07-24T11:38:02.750Z,41.20
2017-07-24T11:40:34.940Z,42.46
2017-07-24T11:43:06.469Z,43.43
2017-07-24T11:45:37.927Z,42.81
2017-07-24T11:48:10.181Z,41.79
2017-07-24T11:50:41.702Z,40.63
2017-07-24T11:53:14.722Z,39.97
2017-07-24T11:55:46.555Z,39.13
2017-07-24T12:01:14.553Z,37.54
2017-07-24T12:03:46.593Z,36.58
2017-07-24T12:06:19.963Z,35.63
2017-07-24T12:08:52.211Z,36.06
2017-07-24T12:11:23.619Z,36.20
2017-07-24T12:13:55.355Z,36.48
2017-07-24T12:16:26.714Z,35.99
2017-07-24T12:18:58.159Z,34.56
2017-07-24T12:21:40.990Z,34.28
2017-07-24T12:24:21.686Z,34.15
2017-07-24T12:29:48.557Z,35.60
2017-07-24T12:32:19.978Z,35.02
2017-07-24T12:34:51.775Z,35.67
2017-07-24T12:37:23.164Z,36.82
2017-07-24T12:39:55.184Z,37.39
2017-07-24T12:42:27.966Z,39.65
2017-07-24T12:45:03.840Z,38.40
2017-07-24T12:50:30.646Z,41.36
2017-07-24T12:53:02.346Z,41.18
2017-07-24T12:55:33.949Z,38.33
2017-07-24T12:58:08.621Z,33.74
2017-07-24T13:00:40.450Z,31.59
2017-07-24T13:03:13.702Z,32.44
2017-07-24T13:05:49.521Z,35.26
2017-07-24T13:08:29.008Z,36.79
2017-07-24T13:11:03.284Z,37.27
2017-07-24T13:13:37.756Z,38.72
2017-07-24T13:16:12.035Z,39.22
2017-07-24T13:18:45.685Z,39.87
2017-07-24T13:21:24.358Z,40.94
2017-07-24T13:23:59.889Z,41.68
2017-07-24T13:26:41.980Z,42.14
2017-07-24T13:29:18.089Z,42.67
2017-07-24T13:31:55.305Z,41.40
2017-07-24T13:37:40.654Z,33.85
2017-07-24T13:40:15.894Z,34.65
2017-07-24T13:42:51.028Z,35.66
2017-07-24T13:45:24.010Z,35.67
2017-07-24T13:47:57.631Z,35.41
2017-07-24T13:50:35.181Z,32.42
2017-07-24T13:53:13.042Z,31.39
2017-07-24T13:55:48.678Z,32.69
2017-07-24T13:58:26.900Z,33.64
2017-07-24T14:01:01.620Z,34.94
2017-07-24T14:03:39.776Z,33.64
2017-07-24T14:06:43.529Z,33.71
2017-07-24T14:09:37.957Z,31.20
2017-07-24T14:15:12.303Z,31.38
2017-07-24T14:20:40.711Z,34.37
2017-07-24T14:23:12.440Z,35.44
2017-07-24T14:25:44.232Z,37.67
2017-07-24T14:31:13.531Z,40.47
2017-07-24T14:33:45.924Z,42.48
2017-07-24T14:36:18.212Z,42.43
2017-07-24T14:38:49.800Z,43.13
2017-07-24T14:41:21.282Z,43.85
2017-07-24T14:43:54.091Z,44.76
2017-07-24T14:46:25.716Z,45.38
2017-07-24T14:48:57.482Z,48.52
2017-07-24T14:51:28.913Z,45.82
2017-07-24T14:54:00.355Z,39.70
2017-07-24T14:59:29.690Z,32.58
2017-07-24T15:02:01.482Z,29.72
2017-07-24T15:04:33.896Z,28.56
2017-07-24T15:07:06.191Z,27.44
2017-07-24T15:09:37.736Z,29.52
2017-07-24T15:12:09.211Z,32.57
2017-07-24T15:14:41.025Z,34.57
2017-07-24T15:17:12.529Z,36.05
2017-07-24T15:19:43.917Z,36.93
2017-07-24T15:22:15.855Z,38.61
2017-07-24T15:24:47.363Z,41.97
2017-07-24T15:27:18.832Z,42.97
2017-07-24T15:29:50.663Z,44.95
2017-07-24T15:32:22.269Z,47.17
2017-07-24T15:34:53.690Z,46.74
2017-07-24T15:37:25.541Z,42.71
2017-07-24T15:39:56.951Z,41.58
2017-07-24T15:42:28.513Z,42.02
2017-07-24T15:47:41.096Z,42.66
2017-07-24T15:50:13.146Z,43.03
2017-07-24T15:52:44.561Z,43.09
2017-07-24T15:55:19.548Z,43.81
2017-07-24T15:57:51.064Z,45.37
2017-07-24T16:00:24.311Z,47.38
2017-07-24T16:02:56.459Z,47.91
2017-07-24T16:05:28.895Z,46.76
2017-07-24T16:08:06.153Z,46.74
2017-07-24T16:10:38.665Z,45.07
2017-07-24T16:13:13.820Z,45.00
2017-07-24T16:15:48.162Z,45.40
2017-07-24T16:18:23.875Z,46.32
2017-07-24T16:20:59.098Z,43.20
2017-07-24T16:23:32.374Z,42.01
2017-07-24T16:26:13.671Z,42.92
2017-07-24T16:31:45.192Z,44.75
2017-07-24T16:34:20.395Z,45.84
2017-07-24T16:36:52.174Z,46.15
2017-07-24T16:39:26.449Z,47.31
2017-07-24T16:42:00.244Z,47.45
2017-07-24T16:44:35.031Z,47.77
2017-07-24T16:47:12.039Z,47.81
2017-07-24T16:49:43.638Z,47.57
2017-07-24T16:52:18.500Z,47.21
2017-07-24T16:54:50.418Z,45.74
2017-07-24T16:57:34.340Z,44.84
2017-07-24T17:05:02.774Z,43.44
2017-07-24T17:07:35.008Z,48.44
2017-07-24T17:10:10.785Z,43.72
2017-07-24T17:36:03.740Z,53.52
2017-07-24T17:38:36.188Z,54.55
2017-07-24T17:41:07.927Z,54.75
2017-07-24T17:43:40.351Z,54.30
2017-07-24T17:46:12.806Z,54.03
2017-07-24T17:48:44.341Z,53.96
2017-07-24T17:51:16.678Z,53.92
2017-07-24T17:53:48.102Z,54.23
2017-07-24T17:59:15.483Z,54.65
2017-07-24T18:01:47.835Z,55.05
2017-07-24T18:04:51.092Z,54.64
2017-07-24T18:07:26.424Z,54.95
2017-07-24T18:12:55.273Z,56.05
2017-07-24T18:15:27.221Z,57.08
2017-07-24T18:17:59.010Z,56.76
2017-07-24T18:20:30.620Z,56.55
2017-07-24T18:23:03.485Z,56.22
2017-07-24T18:25:36.050Z,56.49
2017-07-24T18:28:11.952Z,57.31
2017-07-24T18:30:43.693Z,58.19
2017-07-24T18:33:15.224Z,58.91
2017-07-24T18:35:47.205Z,60.39
2017-07-24T18:38:20.497Z,60.77
2017-07-24T18:40:53.988Z,60.68
2017-07-24T18:43:29.172Z,60.80
2017-07-24T18:49:14.888Z,62.69
2017-07-24T18:52:06.384Z,63.32
2017-07-24T19:00:42.652Z,64.69
2017-07-24T19:03:14.992Z,64.83
2017-07-24T19:05:46.932Z,64.83
2017-07-24T19:08:21.212Z,64.55
2017-07-24T19:10:53.645Z,63.90
2017-07-24T19:13:25.785Z,64.31
2017-07-24T19:15:58.104Z,64.22
2017-07-24T19:18:30.226Z,63.00
2017-07-24T19:21:04.878Z,62.03
2017-07-24T19:23:37.054Z,61.43
2017-07-24T19:26:08.975Z,61.29
2017-07-24T19:28:40.696Z,60.92
2017-07-24T19:31:12.238Z,60.39
2017-07-24T19:33:44.172Z,60.51
2017-07-24T19:36:17.242Z,59.83
2017-07-24T19:38:48.954Z,60.34
2017-07-24T19:41:21.401Z,61.35
2017-07-24T19:43:55.340Z,61.66
2017-07-24T19:46:28.618Z,61.78
2017-07-24T19:49:00.353Z,62.04
2017-07-24T19:51:32.124Z,62.07
2017-07-24T19:54:07.167Z,63.43
2017-07-24T19:56:40.178Z,65.44
2017-07-24T19:59:14.232Z,66.33
2017-07-24T20:08:00.179Z,66.53
2017-07-24T20:10:31.861Z,66.40
2017-07-24T20:13:03.846Z,66.08
2017-07-24T20:15:36.243Z,66.03
2017-07-24T20:18:13.486Z,66.10
2017-07-24T20:20:46.360Z,65.79
2017-07-24T20:23:19.968Z,65.39
2017-07-24T20:25:52.816Z,65.41
2017-07-24T20:28:24.662Z,65.21
2017-07-24T20:30:56.590Z,65.75
2017-07-24T20:33:28.057Z,66.25
2017-07-24T20:36:00.155Z,66.57
2017-07-24T20:38:31.626Z,67.40
2017-07-24T20:41:04.804Z,68.08
2017-07-24T20:43:38.702Z,68.22
2017-07-24T20:46:10.470Z,68.22
2017-07-24T20:48:42.333Z,68.71
2017-07-24T20:51:13.820Z,69.22
2017-07-24T20:53:45.298Z,69.42
2017-07-24T20:56:17.406Z,69.59
2017-07-24T20:58:49.440Z,69.50
2017-07-24T21:01:21.363Z,69.72
2017-07-24T21:03:54.490Z,69.40
2017-07-24T21:06:26.405Z,69.32
2017-07-24T21:09:00.743Z,69.26
2017-07-24T21:11:35.051Z,69.53
2017-07-24T21:14:09.849Z,69.06
2017-07-24T21:16:46.835Z,68.86
2017-07-24T21:19:19.974Z,68.78
2017-07-24T21:21:52.714Z,69.32
2017-07-24T21:24:25.559Z,69.13
2017-07-24T21:26:59.287Z,69.18
2017-07-24T21:29:32.832Z,69.56
2017-07-24T21:32:08.652Z,69.43
2017-07-24T21:34:40.364Z,69.61
2017-07-24T21:37:20.101Z,69.70
2017-07-24T21:39:58.347Z,69.42
2017-07-24T21:42:35.670Z,69.28
2017-07-24T21:45:16.834Z,69.31
2017-07-24T21:47:54.323Z,69.66
2017-07-24T21:50:31.837Z,69.84
2017-07-24T21:53:04.568Z,69.60
2017-07-24T21:55:36.195Z,69.44
2017-07-24T21:58:09.134Z,69.80
2017-07-24T22:00:42.142Z,69.60
2017-07-24T22:03:13.760Z,69.28
2017-07-24T22:05:47.316Z,69.34
2017-07-24T22:08:20.140Z,69.53
2017-07-24T22:10:55.399Z,69.90
2017-07-24T22:13:27.490Z,70.11
2017-07-24T22:15:59.358Z,70.29
2017-07-24T22:18:32.243Z,69.67
2017-07-24T22:21:05.118Z,69.01
2017-07-24T22:23:37.620Z,69.01
2017-07-24T22:26:09.341Z,69.16
2017-07-24T22:28:41.197Z,69.10
2017-07-24T22:31:13.186Z,68.88
2017-07-24T22:33:45.666Z,69.25
2017-07-24T22:36:18.620Z,69.60
2017-07-24T22:38:51.416Z,69.16
2017-07-24T22:41:23.971Z,68.82
2017-07-24T22:43:55.573Z,68.41
2017-07-24T22:46:27.095Z,68.28
2017-07-24T22:48:59.715Z,67.79
2017-07-24T22:51:33.549Z,67.84
2017-07-24T22:54:11.410Z,69.40
2017-07-24T22:56:43.206Z,67.31
2017-07-24T22:59:17.051Z,66.93
2017-07-24T23:01:48.528Z,67.22
2017-07-24T23:04:20.733Z,65.30
2017-07-24T23:06:53.615Z,65.94
2017-07-24T23:09:26.929Z,65.14
2017-07-24T23:11:58.611Z,65.03
2017-07-24T23:14:30.418Z,65.62
2017-07-24T23:17:02.176Z,66.71
2017-07-24T23:19:34.318Z,67.24
2017-07-24T23:22:07.031Z,64.64
2017-07-24T23:24:38.511Z,63.20
2017-07-24T23:27:09.976Z,63.35
2017-07-24T23:29:41.450Z,63.58
2017-07-24T23:32:13.489Z,63.40
2017-07-24T23:34:45.204Z,63.70
2017-07-24T23:37:17.044Z,63.96
2017-07-24T23:39:49.054Z,64.00
2017-07-24T23:42:20.695Z,63.81
2017-07-24T23:44:52.264Z,63.74
2017-07-24T23:47:25.063Z,64.02
2017-07-24T23:49:57.410Z,63.92
2017-07-24T23:52:29.420Z,64.07
2017-07-24T23:55:01.652Z,64.15
2017-07-24T23:57:33.277Z,64.41
